createdAt,value
2022-08-20T00:00:29.872Z,8.70
2022-08-20T00:01:30.388Z,8.50
2022-08-20T00:02:29.878Z,9.70
2022-08-20T00:03:29.922Z,8.70
2022-08-20T00:04:29.889Z,8.70
2022-08-20T00:05:29.907Z,8.60
2022-08-20T00:06:29.819Z,9.10
2022-08-20T00:07:29.835Z,9.40
2022-08-20T00:08:29.834Z,9.30
2022-08-20T00:09:29.932Z,8.50
2022-08-20T00:10:29.845Z,8.30
2022-08-20T00:11:29.803Z,9.20
2022-08-20T00:12:29.893Z,8.30
2022-08-20T00:13:30.169Z,8.40
2022-08-20T00:14:29.772Z,8.40
2022-08-20T00:15:29.795Z,9.00
2022-08-20T00:16:29.806Z,8.30
2022-08-20T00:17:29.795Z,8.90
2022-08-20T00:18:29.824Z,8.20
2022-08-20T00:19:29.728Z,8.90
2022-08-20T00:20:29.872Z,8.20
2022-08-20T00:21:31.501Z,8.50
2022-08-20T00:22:29.729Z,8.70
2022-08-20T00:23:29.781Z,8.40
2022-08-20T00:24:29.706Z,8.40
2022-08-20T00:25:29.715Z,8.80
2022-08-20T00:26:29.704Z,9.10
2022-08-20T00:27:29.710Z,8.80
2022-08-20T00:28:29.709Z,8.50
2022-08-20T00:29:29.696Z,8.40
2022-08-20T00:30:29.727Z,8.50
2022-08-20T00:31:29.674Z,9.50
2022-08-20T00:32:29.683Z,8.50
2022-08-20T00:33:29.654Z,9.70
2022-08-20T00:34:29.652Z,9.10
2022-08-20T00:35:29.712Z,8.70
2022-08-20T00:36:32.694Z,9.30
2022-08-20T00:37:29.690Z,9.50
2022-08-20T00:38:29.619Z,9.50
2022-08-20T00:39:29.608Z,9.50
2022-08-20T00:40:29.653Z,9.30
2022-08-20T00:41:29.591Z,9.10
2022-08-20T00:42:29.621Z,8.70
2022-08-20T00:43:29.632Z,8.50
2022-08-20T00:44:29.626Z,8.30
2022-08-20T00:45:29.601Z,9.40
2022-08-20T00:46:31.929Z,9.20
2022-08-20T00:47:29.624Z,8.90
2022-08-20T00:48:29.546Z,8.90
2022-08-20T00:49:29.632Z,8.40
2022-08-20T00:50:29.643Z,9.10
2022-08-20T00:51:29.984Z,9.30
2022-08-20T00:52:29.532Z,8.70
2022-08-20T00:53:29.517Z,8.80
2022-08-20T00:54:29.520Z,8.90
2022-08-20T00:55:31.664Z,9.30
2022-08-20T00:56:30.563Z,8.90
2022-08-20T00:57:29.528Z,8.70
2022-08-20T00:58:30.550Z,9.10
2022-08-20T00:59:29.525Z,9.60
2022-08-20T01:00:29.466Z,9.50
2022-08-20T01:01:29.521Z,9.50
2022-08-20T01:02:29.507Z,9.50
2022-08-20T01:03:29.476Z,8.70
2022-08-20T01:04:29.582Z,10.30
2022-08-20T01:05:29.899Z,9.00
2022-08-20T01:06:29.447Z,8.40
2022-08-20T01:07:29.470Z,8.50
2022-08-20T01:08:29.441Z,9.10
2022-08-20T01:09:50.189Z,8.90
2022-08-20T01:10:30.455Z,9.00
2022-08-20T01:11:29.454Z,8.80
2022-08-20T01:12:30.389Z,9.50
2022-08-20T01:13:29.404Z,8.80
2022-08-20T01:14:29.397Z,9.70
2022-08-20T01:15:31.318Z,8.50
2022-08-20T01:16:29.382Z,9.10
2022-08-20T01:17:29.373Z,8.70
2022-08-20T01:18:29.415Z,8.60
2022-08-20T01:19:30.338Z,9.20
2022-08-20T01:20:29.368Z,9.00
2022-08-20T01:21:29.358Z,8.70
2022-08-20T01:22:29.448Z,8.50
2022-08-20T01:23:29.423Z,8.90
2022-08-20T01:24:29.386Z,8.70
2022-08-20T01:25:29.382Z,8.50
2022-08-20T01:26:29.328Z,9.00
2022-08-20T01:27:29.298Z,9.70
2022-08-20T01:28:29.300Z,8.70
2022-08-20T01:29:29.289Z,9.50
2022-08-20T01:30:29.491Z,8.30
2022-08-20T01:31:29.289Z,9.60
2022-08-20T01:32:29.285Z,8.80
2022-08-20T01:33:29.267Z,9.10
2022-08-20T01:34:29.298Z,9.20
2022-08-20T01:35:29.327Z,8.90
2022-08-20T01:36:29.275Z,8.80
2022-08-20T01:37:31.621Z,9.00
2022-08-20T01:38:29.281Z,9.60
2022-08-20T01:39:29.235Z,10.00
2022-08-20T01:40:29.272Z,9.60
2022-08-20T01:41:29.333Z,9.00
2022-08-20T01:42:29.228Z,9.20
2022-08-20T01:43:29.206Z,8.60
2022-08-20T01:44:29.228Z,8.80
2022-08-20T01:45:30.899Z,8.90
2022-08-20T01:46:29.194Z,9.10
2022-08-20T01:47:29.327Z,9.10
2022-08-20T01:48:29.194Z,8.90
2022-08-20T01:49:29.213Z,9.10
2022-08-20T01:50:29.171Z,10.00
2022-08-20T01:51:29.149Z,9.20
2022-08-20T01:52:29.179Z,9.40
2022-08-20T01:53:29.165Z,9.10
2022-08-20T01:54:29.182Z,9.60
2022-08-20T01:55:29.128Z,9.00
2022-08-20T01:56:30.149Z,9.20
2022-08-20T01:57:29.128Z,9.60
2022-08-20T01:58:29.129Z,9.10
2022-08-20T01:59:29.161Z,9.40
2022-08-20T02:00:29.129Z,9.10
2022-08-20T02:01:29.116Z,9.40
2022-08-20T02:02:29.123Z,8.80
2022-08-20T02:03:31.678Z,8.60
2022-08-20T02:04:30.137Z,9.40
2022-08-20T02:05:30.518Z,8.80
2022-08-20T02:06:29.149Z,9.10
2022-08-20T02:07:29.075Z,9.00
2022-08-20T02:08:29.064Z,8.30
2022-08-20T02:09:29.052Z,8.50
2022-08-20T02:10:31.607Z,8.90
2022-08-20T02:11:29.083Z,9.30
2022-08-20T02:12:29.066Z,8.90
2022-08-20T02:13:29.055Z,8.60
2022-08-20T02:14:29.063Z,9.50
2022-08-20T02:15:34.551Z,9.40
2022-08-20T02:16:30.042Z,10.00
2022-08-20T02:17:29.003Z,9.60
2022-08-20T02:18:29.046Z,9.00
2022-08-20T02:19:29.010Z,8.50
2022-08-20T02:20:28.988Z,9.00
2022-08-20T02:21:29.026Z,9.50
2022-08-20T02:22:29.016Z,9.30
2022-08-20T02:23:28.994Z,9.00
2022-08-20T02:24:28.946Z,9.70
2022-08-20T02:25:28.937Z,8.90
2022-08-20T02:26:28.939Z,9.40
2022-08-20T02:27:28.949Z,9.20
2022-08-20T02:28:28.940Z,8.70
2022-08-20T02:29:28.923Z,9.10
2022-08-20T02:30:28.924Z,9.10
2022-08-20T02:31:34.231Z,9.10
2022-08-20T02:32:33.771Z,9.60
2022-08-20T02:33:28.926Z,8.80
2022-08-20T02:34:28.929Z,9.00
2022-08-20T02:35:28.899Z,9.50
2022-08-20T02:36:28.897Z,8.90
2022-08-20T02:37:28.895Z,9.20
2022-08-20T02:38:28.914Z,8.80
2022-08-20T02:39:28.878Z,9.20
2022-08-20T02:40:30.979Z,8.90
2022-08-20T02:41:28.900Z,8.60
2022-08-20T02:42:28.871Z,9.00
2022-08-20T02:43:28.929Z,9.50
2022-08-20T02:44:28.851Z,8.80
2022-08-20T02:45:28.877Z,9.00
2022-08-20T02:46:28.926Z,8.60
2022-08-20T02:47:28.813Z,9.20
2022-08-20T02:48:28.856Z,9.90
2022-08-20T02:49:28.828Z,10.10
2022-08-20T02:50:28.830Z,9.70
2022-08-20T02:51:30.586Z,9.80
2022-08-20T02:52:28.789Z,9.70
2022-08-20T02:53:28.792Z,9.70
2022-08-20T02:54:29.769Z,10.00
2022-08-20T02:55:28.757Z,10.20
2022-08-20T02:56:28.943Z,9.60
2022-08-20T02:57:28.766Z,9.30
2022-08-20T02:58:28.779Z,9.90
2022-08-20T02:59:28.776Z,10.20
2022-08-20T03:00:28.769Z,9.40
2022-08-20T03:01:28.799Z,9.50
2022-08-20T03:02:28.734Z,10.40
2022-08-20T03:03:28.773Z,9.60
2022-08-20T03:04:28.741Z,10.10
2022-08-20T03:05:28.728Z,9.90
2022-08-20T03:06:28.697Z,9.80
2022-08-20T03:07:28.735Z,10.40
2022-08-20T03:08:28.713Z,9.90
2022-08-20T03:09:28.657Z,10.00
2022-08-20T03:10:28.723Z,11.10
2022-08-20T03:11:28.782Z,10.20
2022-08-20T03:12:28.721Z,10.20
2022-08-20T03:13:28.666Z,9.60
2022-08-20T03:14:28.672Z,10.70
2022-08-20T03:15:28.669Z,10.50
2022-08-20T03:16:28.721Z,10.50
2022-08-20T03:17:28.656Z,10.90
2022-08-20T03:18:28.689Z,10.10
2022-08-20T03:19:28.626Z,10.40
2022-08-20T03:20:28.660Z,11.50
2022-08-20T03:21:28.615Z,10.20
2022-08-20T03:22:28.598Z,10.80
2022-08-20T03:23:28.660Z,9.90
2022-08-20T03:24:28.586Z,10.30
2022-08-20T03:25:28.611Z,10.70
2022-08-20T03:26:28.600Z,10.60
2022-08-20T03:27:32.732Z,10.40
2022-08-20T03:28:29.587Z,10.50
2022-08-20T03:29:28.557Z,11.10
2022-08-20T03:30:28.616Z,11.60
2022-08-20T03:31:28.562Z,11.60
2022-08-20T03:32:28.569Z,10.80
2022-08-20T03:33:28.557Z,11.40
2022-08-20T03:34:28.536Z,11.40
2022-08-20T03:35:28.566Z,11.80
2022-08-20T03:36:29.167Z,11.40
2022-08-20T03:37:28.535Z,12.40
2022-08-20T03:38:32.590Z,11.70
2022-08-20T03:39:28.490Z,11.40
2022-08-20T03:40:28.533Z,12.00
2022-08-20T03:41:28.527Z,11.80
2022-08-20T03:42:28.507Z,11.50
2022-08-20T03:43:28.572Z,11.50
2022-08-20T03:44:28.513Z,11.70
2022-08-20T03:45:28.525Z,11.00
2022-08-20T03:46:28.487Z,11.90
2022-08-20T03:47:28.476Z,11.80
2022-08-20T03:48:28.501Z,10.90
2022-08-20T03:49:28.442Z,10.90
2022-08-20T03:50:28.500Z,11.20
2022-08-20T03:51:28.488Z,11.10
2022-08-20T03:52:28.414Z,11.30
2022-08-20T03:53:28.504Z,11.10
2022-08-20T03:54:32.100Z,11.10
2022-08-20T03:55:28.417Z,10.70
2022-08-20T03:56:28.413Z,11.00
2022-08-20T03:57:28.422Z,11.70
2022-08-20T03:58:32.800Z,12.10
2022-08-20T03:59:29.477Z,12.30
2022-08-20T04:00:28.365Z,12.90
2022-08-20T04:01:37.085Z,11.20
2022-08-20T04:02:29.351Z,10.80
2022-08-20T04:03:28.424Z,11.40
2022-08-20T04:04:28.340Z,11.10
2022-08-20T04:05:28.548Z,11.50
2022-08-20T04:06:28.330Z,10.90
2022-08-20T04:07:28.380Z,10.00
2022-08-20T04:08:28.354Z,11.70
2022-08-20T04:09:28.342Z,11.10
2022-08-20T04:10:28.388Z,11.80
2022-08-20T04:11:28.317Z,11.10
2022-08-20T04:12:28.284Z,10.80
2022-08-20T04:13:28.341Z,11.50
2022-08-20T04:14:29.301Z,11.40
2022-08-20T04:15:28.257Z,10.60
2022-08-20T04:16:28.262Z,11.80
2022-08-20T04:17:28.252Z,11.20
2022-08-20T04:18:28.268Z,11.30
2022-08-20T04:19:32.415Z,11.60
2022-08-20T04:20:30.286Z,11.50
2022-08-20T04:21:29.621Z,10.70
2022-08-20T04:22:28.244Z,11.60
2022-08-20T04:23:28.240Z,11.00
2022-08-20T04:24:32.067Z,12.10
2022-08-20T04:25:28.247Z,12.30
2022-08-20T04:26:28.217Z,12.00
2022-08-20T04:27:28.222Z,12.30
2022-08-20T04:28:28.199Z,12.00
2022-08-20T04:29:32.461Z,11.90
2022-08-20T04:30:28.243Z,12.10
2022-08-20T04:31:28.202Z,11.50
2022-08-20T04:32:28.219Z,12.50
2022-08-20T04:33:33.352Z,11.60
2022-08-20T04:34:29.201Z,12.00
2022-08-20T04:35:28.122Z,11.70
2022-08-20T04:36:28.185Z,13.10
2022-08-20T04:37:28.147Z,10.40
2022-08-20T04:38:28.135Z,11.40
2022-08-20T04:39:29.130Z,12.10
2022-08-20T04:40:28.137Z,12.10
2022-08-20T04:41:28.118Z,12.10
2022-08-20T04:42:28.117Z,12.50
2022-08-20T04:43:28.102Z,13.20
2022-08-20T04:44:28.102Z,12.40
2022-08-20T04:45:28.091Z,11.90
2022-08-20T04:46:28.128Z,11.50
2022-08-20T04:47:34.458Z,11.50
2022-08-20T04:48:29.066Z,11.20
2022-08-20T04:49:29.064Z,12.00
2022-08-20T04:50:28.099Z,12.30
2022-08-20T04:51:30.905Z,12.50
2022-08-20T04:52:28.047Z,12.60
2022-08-20T04:53:28.022Z,12.40
2022-08-20T04:54:28.025Z,12.80
2022-08-20T04:55:28.030Z,12.60
2022-08-20T04:56:28.041Z,13.10
2022-08-20T04:57:29.044Z,11.80
2022-08-20T04:58:28.051Z,12.10
2022-08-20T04:59:28.024Z,12.90
2022-08-20T05:00:28.054Z,12.40
2022-08-20T05:01:28.047Z,13.20
2022-08-20T05:02:28.053Z,13.40
2022-08-20T05:03:28.027Z,13.10
2022-08-20T05:04:28.022Z,12.90
2022-08-20T05:05:27.979Z,13.00
2022-08-20T05:06:27.977Z,11.80
2022-08-20T05:07:27.961Z,12.50
2022-08-20T05:08:27.991Z,12.40
2022-08-20T05:09:27.982Z,13.30
2022-08-20T05:10:27.946Z,12.50
2022-08-20T05:11:35.854Z,12.90
2022-08-20T05:12:28.913Z,11.10
2022-08-20T05:13:28.001Z,13.00
2022-08-20T05:14:27.896Z,11.90
2022-08-20T05:15:27.894Z,14.10
2022-08-20T05:16:27.889Z,11.40
2022-08-20T05:17:27.890Z,13.20
2022-08-20T05:18:27.919Z,12.70
2022-08-20T05:19:27.903Z,12.20
2022-08-20T05:20:27.868Z,12.70
2022-08-20T05:21:28.854Z,13.10
2022-08-20T05:22:27.896Z,12.00
2022-08-20T05:23:27.833Z,12.70
2022-08-20T05:24:27.838Z,11.20
2022-08-20T05:25:27.879Z,12.30
2022-08-20T05:26:27.857Z,12.20
2022-08-20T05:27:27.859Z,12.30
2022-08-20T05:28:27.827Z,12.40
2022-08-20T05:29:27.858Z,12.10
2022-08-20T05:30:27.802Z,12.60
2022-08-20T05:31:31.890Z,12.00
2022-08-20T05:32:28.800Z,13.70
2022-08-20T05:33:27.782Z,12.60
2022-08-20T05:34:27.812Z,13.10
2022-08-20T05:35:27.809Z,13.10
2022-08-20T05:36:27.769Z,11.80
2022-08-20T05:37:27.790Z,11.70
2022-08-20T05:38:27.757Z,12.90
2022-08-20T05:39:27.815Z,12.90
2022-08-20T05:40:27.781Z,12.60
2022-08-20T05:41:29.869Z,12.40
2022-08-20T05:42:27.728Z,12.10
2022-08-20T05:43:27.725Z,12.00
2022-08-20T05:44:27.741Z,13.90
2022-08-20T05:45:27.779Z,12.50
2022-08-20T05:46:27.709Z,13.10
2022-08-20T05:47:27.700Z,12.30
2022-08-20T05:48:27.705Z,12.60
2022-08-20T05:49:27.689Z,12.10
2022-08-20T05:50:27.696Z,12.90
2022-08-20T05:51:27.692Z,11.80
2022-08-20T05:52:27.694Z,12.80
2022-08-20T05:53:27.670Z,11.90
2022-08-20T05:54:27.663Z,12.00
2022-08-20T05:55:27.718Z,11.90
2022-08-20T05:56:27.667Z,12.00
2022-08-20T05:57:27.691Z,11.70
2022-08-20T05:58:27.632Z,12.30
2022-08-20T05:59:27.644Z,11.90
2022-08-20T06:00:27.632Z,12.20
2022-08-20T06:01:27.701Z,12.00
2022-08-20T06:02:27.647Z,11.60
2022-08-20T06:03:27.693Z,12.80
2022-08-20T06:04:27.639Z,12.30
2022-08-20T06:05:27.593Z,11.90
2022-08-20T06:06:44.890Z,12.60
2022-08-20T06:07:28.644Z,11.60
2022-08-20T06:08:27.553Z,12.20
2022-08-20T06:09:30.851Z,10.90
2022-08-20T06:10:27.574Z,11.20
2022-08-20T06:11:27.571Z,11.20
2022-08-20T06:12:27.600Z,12.20
2022-08-20T06:13:27.559Z,11.90
2022-08-20T06:14:27.616Z,15.40
2022-08-20T06:15:27.526Z,12.20
2022-08-20T06:16:29.022Z,12.60
2022-08-20T06:17:27.535Z,11.80
2022-08-20T06:18:28.991Z,11.40
2022-08-20T06:19:32.339Z,12.90
2022-08-20T06:20:28.541Z,12.30
2022-08-20T06:21:27.522Z,12.30
2022-08-20T06:22:27.491Z,13.80
2022-08-20T06:23:27.496Z,13.20
2022-08-20T06:24:28.545Z,13.10
2022-08-20T06:25:27.583Z,13.20
2022-08-20T06:26:30.189Z,13.50
2022-08-20T06:27:27.515Z,12.00
2022-08-20T06:28:27.544Z,13.00
2022-08-20T06:29:27.588Z,13.30
2022-08-20T06:30:27.671Z,13.30
2022-08-20T06:31:27.658Z,11.30
2022-08-20T06:32:31.726Z,12.30
2022-08-20T06:33:28.435Z,13.00
2022-08-20T06:34:27.428Z,11.60
2022-08-20T06:35:27.462Z,11.80
2022-08-20T06:36:27.430Z,12.30
2022-08-20T06:37:31.475Z,12.70
2022-08-20T06:38:27.389Z,12.40
2022-08-20T06:39:27.408Z,11.60
2022-08-20T06:40:27.411Z,12.90
2022-08-20T06:41:36.069Z,13.30
2022-08-20T06:42:28.365Z,13.30
2022-08-20T06:43:27.352Z,12.40
2022-08-20T06:44:27.370Z,12.90
2022-08-20T06:45:27.389Z,13.10
2022-08-20T06:46:27.384Z,12.90
2022-08-20T06:47:27.352Z,13.60
2022-08-20T06:48:27.335Z,13.00
2022-08-20T06:49:27.359Z,13.30
2022-08-20T06:50:27.347Z,13.10
2022-08-20T06:51:27.364Z,12.90
2022-08-20T06:52:51.772Z,13.00
2022-08-20T06:53:28.325Z,13.10
2022-08-20T06:54:29.498Z,12.60
2022-08-20T06:55:27.318Z,13.20
2022-08-20T06:56:27.332Z,12.90
2022-08-20T06:57:27.289Z,13.50
2022-08-20T06:58:38.398Z,13.20
2022-08-20T06:59:28.269Z,12.80
2022-08-20T07:00:27.246Z,12.00
2022-08-20T07:01:27.442Z,13.50
2022-08-20T07:02:30.607Z,12.00
2022-08-20T07:03:28.104Z,12.20
2022-08-20T07:04:27.516Z,13.50
2022-08-20T07:05:27.241Z,12.60
2022-08-20T07:06:27.233Z,12.10
2022-08-20T07:07:27.272Z,12.40
2022-08-20T07:08:27.219Z,11.70
2022-08-20T07:09:27.200Z,12.20
2022-08-20T07:10:27.313Z,11.70
2022-08-20T07:11:28.556Z,12.70
2022-08-20T07:12:28.217Z,12.10
2022-08-20T07:13:27.234Z,13.00
2022-08-20T07:14:27.199Z,14.80
2022-08-20T07:15:27.173Z,12.40
2022-08-20T07:16:27.246Z,12.20
2022-08-20T07:17:27.142Z,12.50
2022-08-20T07:18:28.345Z,12.70
2022-08-20T07:19:27.196Z,13.20
2022-08-20T07:20:27.121Z,13.30
2022-08-20T07:21:27.474Z,12.90
2022-08-20T07:22:27.148Z,14.20
2022-08-20T07:23:27.137Z,13.60
2022-08-20T07:24:33.296Z,12.80
2022-08-20T07:25:28.107Z,13.50
2022-08-20T07:26:27.102Z,13.50
2022-08-20T07:27:27.184Z,12.60
2022-08-20T07:28:27.064Z,12.60
2022-08-20T07:29:27.098Z,13.20
2022-08-20T07:30:27.079Z,12.70
2022-08-20T07:31:27.122Z,12.80
2022-08-20T07:32:28.889Z,13.00
2022-08-20T07:33:28.401Z,12.50
2022-08-20T07:34:27.038Z,12.20
2022-08-20T07:35:27.058Z,12.40
2022-08-20T07:36:27.029Z,12.90
2022-08-20T07:37:27.039Z,13.20
2022-08-20T07:38:27.066Z,15.00
2022-08-20T07:39:28.437Z,13.30
2022-08-20T07:40:27.101Z,13.00
2022-08-20T07:41:27.009Z,12.50
2022-08-20T07:42:26.987Z,11.90
2022-08-20T07:43:27.061Z,13.60
2022-08-20T07:44:29.127Z,12.50
2022-08-20T07:45:26.961Z,12.80
2022-08-20T07:46:31.234Z,12.10
2022-08-20T07:47:26.972Z,13.00
2022-08-20T07:48:30.880Z,12.40
2022-08-20T07:49:28.034Z,12.70
2022-08-20T07:50:26.955Z,13.30
2022-08-20T07:51:26.934Z,25.00
2022-08-20T07:52:26.948Z,29.60
2022-08-20T07:53:26.915Z,15.80
2022-08-20T07:54:26.942Z,13.70
2022-08-20T07:55:26.956Z,20.40
2022-08-20T07:56:28.128Z,14.80
2022-08-20T07:57:26.889Z,12.90
2022-08-20T07:58:33.122Z,13.40
2022-08-20T07:59:27.879Z,13.00
2022-08-20T08:00:26.868Z,12.50
2022-08-20T08:01:26.961Z,13.10
2022-08-20T08:02:26.857Z,12.90
2022-08-20T08:03:40.864Z,12.40
2022-08-20T08:04:27.831Z,13.90
2022-08-20T08:05:26.858Z,14.30
2022-08-20T08:06:30.354Z,13.60
2022-08-20T08:07:26.882Z,12.70
2022-08-20T08:08:26.822Z,13.60
2022-08-20T08:09:26.804Z,14.10
2022-08-20T08:10:26.852Z,14.00
2022-08-20T08:11:26.790Z,14.00
2022-08-20T08:12:26.821Z,13.20
2022-08-20T08:13:26.782Z,13.60
2022-08-20T08:14:26.760Z,13.60
2022-08-20T08:15:26.762Z,13.40
2022-08-20T08:16:26.795Z,13.50
2022-08-20T08:17:26.776Z,14.70
2022-08-20T08:18:30.053Z,14.60
2022-08-20T08:19:28.756Z,15.80
2022-08-20T08:20:26.758Z,14.90
2022-08-20T08:21:26.839Z,14.50
2022-08-20T08:22:26.761Z,13.90
2022-08-20T08:23:32.130Z,16.50
2022-08-20T08:24:28.600Z,14.90
2022-08-20T08:25:27.692Z,13.70
2022-08-20T08:26:26.692Z,14.30
2022-08-20T08:27:26.692Z,14.70
2022-08-20T08:28:26.701Z,14.60
2022-08-20T08:29:26.714Z,16.00
2022-08-20T08:30:26.765Z,14.30
2022-08-20T08:31:26.693Z,14.30
2022-08-20T08:32:26.643Z,15.10
2022-08-20T08:33:26.657Z,14.00
2022-08-20T08:34:26.637Z,15.00
2022-08-20T08:35:26.646Z,14.30
2022-08-20T08:36:26.630Z,13.40
2022-08-20T08:37:30.502Z,13.70
2022-08-20T08:38:27.603Z,14.10
2022-08-20T08:39:26.607Z,14.50
2022-08-20T08:40:27.643Z,13.20
2022-08-20T08:41:26.591Z,14.70
2022-08-20T08:42:26.595Z,14.00
2022-08-20T08:43:26.588Z,13.10
2022-08-20T08:44:27.575Z,13.10
2022-08-20T08:45:26.607Z,13.60
2022-08-20T08:46:26.556Z,12.50
2022-08-20T08:47:26.538Z,12.90
2022-08-20T08:48:26.577Z,12.40
2022-08-20T08:49:30.170Z,12.80
2022-08-20T08:50:50.189Z,11.90
2022-08-20T08:51:28.515Z,11.60
2022-08-20T08:52:26.576Z,12.40
2022-08-20T08:53:26.517Z,12.30
2022-08-20T08:54:26.531Z,12.30
2022-08-20T08:55:26.486Z,11.70
2022-08-20T08:56:26.477Z,11.90
2022-08-20T08:57:26.490Z,11.40
2022-08-20T08:58:26.520Z,11.70
2022-08-20T08:59:26.458Z,12.40
2022-08-20T09:00:27.535Z,12.80
2022-08-20T09:01:54.118Z,12.00
2022-08-20T09:02:27.527Z,12.30
2022-08-20T09:03:26.461Z,12.00
2022-08-20T09:04:26.422Z,11.20
2022-08-20T09:05:26.452Z,10.70
2022-08-20T09:06:26.415Z,11.00
2022-08-20T09:07:26.438Z,9.80
2022-08-20T09:08:26.489Z,10.30
2022-08-20T09:09:26.438Z,8.70
2022-08-20T09:10:26.396Z,9.80
2022-08-20T09:11:26.373Z,10.90
2022-08-20T09:12:26.367Z,11.10
2022-08-20T09:13:26.377Z,10.50
2022-08-20T09:14:26.374Z,9.80
2022-08-20T09:15:26.385Z,9.10
2022-08-20T09:16:28.069Z,8.80
2022-08-20T09:17:27.386Z,8.30
2022-08-20T09:18:26.367Z,7.50
2022-08-20T09:19:26.348Z,7.10
2022-08-20T09:20:27.233Z,6.30
2022-08-20T09:21:26.330Z,6.50
2022-08-20T09:22:26.299Z,6.50
2022-08-20T09:23:26.354Z,6.50
2022-08-20T09:24:26.305Z,5.90
2022-08-20T09:25:26.310Z,6.70
2022-08-20T09:26:29.099Z,5.90
2022-08-20T09:27:26.300Z,5.80
2022-08-20T09:28:32.317Z,6.60
2022-08-20T09:29:27.291Z,6.20
2022-08-20T09:30:26.268Z,6.80
2022-08-20T09:31:26.276Z,6.30
2022-08-20T09:32:26.324Z,6.50
2022-08-20T09:33:26.254Z,6.00
2022-08-20T09:34:26.423Z,6.60
2022-08-20T09:35:26.234Z,6.30
2022-08-20T09:36:31.585Z,6.10
2022-08-20T09:37:27.461Z,5.80
2022-08-20T09:38:26.294Z,6.30
2022-08-20T09:39:26.263Z,6.40
2022-08-20T09:40:26.289Z,6.90
2022-08-20T09:41:26.215Z,6.70
2022-08-20T09:42:26.332Z,8.30
2022-08-20T09:43:26.226Z,6.10
2022-08-20T09:44:26.204Z,5.90
2022-08-20T09:45:26.195Z,6.30
2022-08-20T09:46:27.052Z,7.30
2022-08-20T09:47:26.260Z,8.00
2022-08-20T09:48:31.891Z,6.70
2022-08-20T09:49:27.155Z,6.90
2022-08-20T09:50:26.138Z,7.10
2022-08-20T09:51:26.153Z,6.60
2022-08-20T09:52:26.145Z,6.90
2022-08-20T09:53:26.179Z,6.70
2022-08-20T09:54:26.129Z,7.00
2022-08-20T09:55:26.114Z,6.50
2022-08-20T09:56:26.109Z,6.50
2022-08-20T09:57:26.097Z,6.40
2022-08-20T09:58:26.071Z,4.90
2022-08-20T09:59:26.173Z,5.30
2022-08-20T10:00:26.151Z,5.50
2022-08-20T10:01:26.140Z,5.30
2022-08-20T10:02:26.067Z,4.90
2022-08-20T10:03:26.106Z,4.90
2022-08-20T10:04:26.055Z,5.10
2022-08-20T10:05:26.076Z,5.40
2022-08-20T10:06:26.035Z,4.80
2022-08-20T10:07:26.081Z,5.60
2022-08-20T10:08:26.064Z,5.40
2022-08-20T10:09:26.080Z,5.70
2022-08-20T10:10:26.078Z,5.40
2022-08-20T10:11:26.055Z,5.60
2022-08-20T10:12:26.006Z,6.30
2022-08-20T10:13:25.991Z,5.70
2022-08-20T10:14:25.989Z,6.30
2022-08-20T10:15:26.055Z,5.90
2022-08-20T10:16:25.987Z,5.40
2022-08-20T10:17:26.120Z,5.50
2022-08-20T10:18:25.982Z,8.90
2022-08-20T10:19:25.959Z,5.10
2022-08-20T10:20:25.977Z,5.00
2022-08-20T10:21:26.037Z,5.00
2022-08-20T10:22:25.994Z,4.70
2022-08-20T10:23:25.985Z,5.00
2022-08-20T10:24:25.956Z,4.50
2022-08-20T10:25:26.022Z,4.70
2022-08-20T10:26:25.945Z,4.20
2022-08-20T10:27:25.922Z,4.50
2022-08-20T10:28:25.954Z,4.70
2022-08-20T10:29:25.912Z,4.40
2022-08-20T10:30:25.913Z,4.20
2022-08-20T10:31:25.981Z,4.20
2022-08-20T10:32:26.088Z,4.20
2022-08-20T10:33:25.942Z,5.00
2022-08-20T10:34:25.876Z,4.40
2022-08-20T10:35:25.897Z,4.50
2022-08-20T10:36:25.870Z,4.50
2022-08-20T10:37:25.841Z,4.10
2022-08-20T10:38:25.890Z,4.40
2022-08-20T10:39:25.850Z,4.70
2022-08-20T10:40:25.837Z,4.40
2022-08-20T10:41:25.853Z,4.30
2022-08-20T10:42:25.856Z,4.30
2022-08-20T10:43:25.838Z,4.30
2022-08-20T10:44:25.810Z,4.00
2022-08-20T10:45:25.848Z,4.80
2022-08-20T10:46:25.918Z,5.00
2022-08-20T10:47:25.786Z,7.10
2022-08-20T10:48:25.800Z,5.00
2022-08-20T10:49:25.886Z,4.70
2022-08-20T10:50:25.810Z,4.70
2022-08-20T10:51:32.536Z,4.40
2022-08-20T10:52:26.747Z,4.60
2022-08-20T10:53:25.738Z,4.10
2022-08-20T10:54:25.819Z,4.60
2022-08-20T10:55:25.774Z,4.20
2022-08-20T10:56:25.787Z,4.70
2022-08-20T10:57:25.716Z,4.10
2022-08-20T10:58:25.695Z,4.90
2022-08-20T10:59:25.706Z,4.70
2022-08-20T11:00:25.714Z,12.40
2022-08-20T11:01:32.733Z,4.80
2022-08-20T11:02:26.728Z,6.20
2022-08-20T11:03:25.667Z,4.60
2022-08-20T11:04:25.713Z,4.90
2022-08-20T11:05:25.707Z,5.20
2022-08-20T11:06:25.678Z,5.30
2022-08-20T11:07:54.956Z,6.10
2022-08-20T11:08:33.421Z,4.90
2022-08-20T11:09:26.634Z,5.40
2022-08-20T11:10:25.621Z,4.90
2022-08-20T11:11:25.646Z,5.30
2022-08-20T11:12:25.640Z,5.40
2022-08-20T11:13:25.732Z,14.70
2022-08-20T11:14:25.606Z,23.30
2022-08-20T11:15:25.587Z,15.00
2022-08-20T11:16:25.588Z,7.40
2022-08-20T11:17:25.636Z,16.50
2022-08-20T11:18:25.575Z,10.30
2022-08-20T11:19:25.589Z,7.40
2022-08-20T11:20:25.644Z,5.90
2022-08-20T11:21:25.592Z,6.40
2022-08-20T11:22:25.555Z,7.10
2022-08-20T11:23:25.562Z,8.30
2022-08-20T11:24:25.536Z,11.20
2022-08-20T11:25:25.558Z,11.40
2022-08-20T11:26:26.602Z,6.90
2022-08-20T11:27:25.508Z,10.70
2022-08-20T11:28:31.611Z,16.50
2022-08-20T11:29:28.273Z,9.50
2022-08-20T11:30:25.515Z,6.30
2022-08-20T11:31:25.507Z,7.10
2022-08-20T11:32:25.496Z,9.30
2022-08-20T11:33:25.495Z,6.50
2022-08-20T11:34:25.516Z,9.30
2022-08-20T11:35:42.108Z,7.30
2022-08-20T11:36:27.465Z,5.60
2022-08-20T11:37:25.443Z,7.30
2022-08-20T11:38:26.687Z,6.20
2022-08-20T11:39:25.489Z,4.30
2022-08-20T11:40:25.467Z,3.80
2022-08-20T11:41:25.456Z,7.00
2022-08-20T11:42:25.476Z,4.00
2022-08-20T11:43:25.402Z,4.00
2022-08-20T11:44:25.440Z,4.00
2022-08-20T11:45:25.393Z,4.00
2022-08-20T11:46:28.437Z,4.40
2022-08-20T11:47:26.382Z,6.90
2022-08-20T11:48:25.399Z,4.40
2022-08-20T11:49:25.392Z,4.20
2022-08-20T11:50:25.465Z,3.60
2022-08-20T11:51:25.439Z,4.50
2022-08-20T11:52:25.347Z,3.60
2022-08-20T11:53:25.352Z,8.80
2022-08-20T11:54:25.341Z,5.90
2022-08-20T11:55:30.605Z,10.60
2022-08-20T11:56:26.372Z,5.30
2022-08-20T11:57:25.323Z,5.30
2022-08-20T11:58:25.324Z,3.90
2022-08-20T11:59:25.312Z,6.80
2022-08-20T12:00:33.095Z,3.10
2022-08-20T12:01:27.338Z,3.30
2022-08-20T12:02:25.345Z,2.80
2022-08-20T12:03:25.322Z,3.10
2022-08-20T12:04:25.309Z,2.80
2022-08-20T12:05:25.307Z,3.30
2022-08-20T12:06:25.302Z,2.40
2022-08-20T12:07:25.252Z,2.90
2022-08-20T12:08:27.875Z,2.40
2022-08-20T12:09:25.213Z,2.40
2022-08-20T12:10:25.230Z,2.80
2022-08-20T12:11:25.238Z,2.70
2022-08-20T12:12:25.214Z,2.70
2022-08-20T12:13:30.728Z,2.80
2022-08-20T12:14:26.209Z,2.60
2022-08-20T12:15:25.182Z,2.70
2022-08-20T12:16:25.283Z,2.80
2022-08-20T12:17:25.193Z,3.00
2022-08-20T12:18:27.062Z,2.40
2022-08-20T12:19:25.181Z,3.30
2022-08-20T12:20:25.142Z,2.50
2022-08-20T12:21:25.270Z,2.50
2022-08-20T12:22:25.536Z,2.70
2022-08-20T12:23:25.183Z,2.70
2022-08-20T12:24:25.154Z,2.60
2022-08-20T12:25:25.130Z,2.70
2022-08-20T12:26:25.127Z,2.80
2022-08-20T12:27:25.120Z,5.30
2022-08-20T12:28:25.168Z,2.90
2022-08-20T12:29:25.098Z,3.10
2022-08-20T12:30:25.093Z,2.70
2022-08-20T12:31:25.163Z,3.00
2022-08-20T12:32:25.069Z,2.60
2022-08-20T12:33:25.215Z,3.00
2022-08-20T12:34:25.101Z,3.40
2022-08-20T12:35:25.087Z,2.50
2022-08-20T12:36:25.101Z,2.80
2022-08-20T12:37:25.044Z,2.80
2022-08-20T12:38:25.031Z,2.60
2022-08-20T12:39:25.067Z,3.00
2022-08-20T12:40:31.973Z,3.80
2022-08-20T12:41:26.057Z,3.00
2022-08-20T12:42:25.107Z,2.70
2022-08-20T12:43:25.406Z,2.80
2022-08-20T12:44:26.052Z,3.30
2022-08-20T12:45:25.033Z,2.90
2022-08-20T12:46:25.023Z,2.70
2022-08-20T12:47:24.996Z,2.60
2022-08-20T12:48:25.027Z,3.00
2022-08-20T12:49:24.964Z,2.40
2022-08-20T12:50:28.526Z,2.40
2022-08-20T12:51:26.011Z,3.50
2022-08-20T12:52:24.946Z,2.60
2022-08-20T12:53:24.925Z,2.70
2022-08-20T12:54:24.955Z,2.40
2022-08-20T12:55:24.906Z,2.80
2022-08-20T12:56:24.984Z,4.30
2022-08-20T12:57:24.993Z,2.60
2022-08-20T12:58:24.910Z,2.70
2022-08-20T12:59:26.141Z,2.60
2022-08-20T13:00:25.932Z,3.30
2022-08-20T13:01:24.932Z,2.50
2022-08-20T13:02:24.894Z,3.30
2022-08-20T13:03:25.931Z,2.60
2022-08-20T13:04:24.893Z,2.20
2022-08-20T13:05:24.865Z,2.40